Time;durP1;ratioP1;P1;durP2;ratioP2;P2;SDS_P1;SDS_P2;PMS_P1;PMS_P2;Temp;Humidity;BMP_temperature;BMP_pressure;BME280_temperature;BME280_humidity;BME280_pressure;Samples;Min_cycle;Max_cycle;Signal;HPM_P1;HPM_P2
2024/01/13 00:00:19;;;;;;;1.35;1.30;;;9.00;83.00;;;;;;5039050;28;20523;-69
2024/01/13 00:02:45;;;;;;;1.30;1.20;;;9.00;82.90;;;;;;5029978;28;20058;-69
2024/01/13 00:05:10;;;;;;;1.05;1.02;;;9.00;82.90;;;;;;5029976;28;20091;-69
2024/01/13 00:07:36;;;;;;;1.38;1.20;;;9.00;83.70;;;;;;5012864;28;20064;-69
2024/01/13 00:10:02;;;;;;;1.00;1.00;;;9.00;82.90;;;;;;5013775;28;20087;-69
2024/01/13 00:12:28;;;;;;;1.20;1.10;;;9.00;82.90;;;;;;5013822;28;20038;-69
2024/01/13 00:14:54;;;;;;;1.13;1.00;;;9.00;82.90;;;;;;5029409;28;20033;-69
2024/01/13 00:17:19;;;;;;;0.90;0.90;;;9.00;82.90;;;;;;5028555;28;20464;-70
2024/01/13 00:19:45;;;;;;;0.90;0.90;;;9.00;82.90;;;;;;5029823;28;20052;-70
2024/01/13 00:22:11;;;;;;;1.13;1.13;;;9.00;82.90;;;;;;5027870;28;20042;-69
2024/01/13 00:24:36;;;;;;;1.40;1.30;;;9.00;82.90;;;;;;5013574;28;20044;-69
2024/01/13 00:27:02;;;;;;;1.67;1.58;;;9.00;82.90;;;;;;5029809;28;20075;-69
2024/01/13 00:29:28;;;;;;;1.05;1.00;;;9.00;82.90;;;;;;5019094;28;20042;-69
2024/01/13 00:31:54;;;;;;;0.90;0.90;;;9.00;82.90;;;;;;5013455;28;20471;-69
2024/01/13 00:34:19;;;;;;;1.40;1.30;;;9.00;82.90;;;;;;5029981;28;20053;-70
2024/01/13 00:36:45;;;;;;;2.03;1.30;;;9.00;82.90;;;;;;5029847;28;20378;-70
2024/01/13 00:39:11;;;;;;;1.20;1.10;;;9.00;83.00;;;;;;5034850;28;20044;-69
2024/01/13 00:41:36;;;;;;;1.20;1.10;;;9.00;83.70;;;;;;5013676;28;20052;-70
2024/01/13 00:44:02;;;;;;;1.40;1.30;;;9.00;82.90;;;;;;5017947;28;20045;-69
2024/01/13 00:46:28;;;;;;;1.48;1.38;;;9.00;82.90;;;;;;5033646;28;20307;-69
2024/01/13 00:48:53;;;;;;;1.10;1.00;;;9.00;83.70;;;;;;5017183;28;20067;-69
2024/01/13 00:51:19;;;;;;;1.20;1.10;;;9.00;83.00;;;;;;5020743;28;20042;-69
2024/01/13 00:53:45;;;;;;;1.30;1.20;;;9.00;83.00;;;;;;5029685;28;20033;-69
2024/01/13 00:56:11;;;;;;;1.05;1.00;;;9.00;82.90;;;;;;5030987;28;20042;-69
2024/01/13 00:58:37;;;;;;;1.25;1.20;;;9.00;82.90;;;;;;5030326;28;20033;-69
2024/01/13 01:01:03;;;;;;;1.20;1.20;;;9.00;82.90;;;;;;5037745;28;20089;-69
2024/01/13 01:03:29;;;;;;;1.10;1.10;;;9.00;82.90;;;;;;5029513;28;20053;-69
2024/01/13 01:05:55;;;;;;;1.25;1.15;;;9.00;82.90;;;;;;5016654;28;20044;-69
2024/01/13 01:08:21;;;;;;;2.13;1.27;;;9.00;82.90;;;;;;5030926;28;20091;-69
2024/01/13 01:10:47;;;;;;;1.10;1.10;;;9.00;82.90;;;;;;5032006;28;20102;-69
2024/01/13 01:13:13;;;;;;;1.45;1.33;;;9.00;82.80;;;;;;5029641;28;20049;-70
2024/01/13 01:15:38;;;;;;;1.23;1.13;;;9.00;82.80;;;;;;5029737;28;20044;-69
2024/01/13 01:18:04;;;;;;;1.23;1.13;;;9.00;82.80;;;;;;5029720;28;20123;-70
2024/01/13 01:20:30;;;;;;;1.17;1.10;;;9.00;82.80;;;;;;5033417;28;20603;-69
2024/01/13 01:22:56;;;;;;;1.17;1.17;;;9.00;82.80;;;;;;5038898;28;20033;-69
2024/01/13 01:25:21;;;;;;;1.10;1.10;;;9.00;82.80;;;;;;5029632;28;20038;-69
2024/01/13 01:27:47;;;;;;;1.30;1.20;;;9.00;82.90;;;;;;5016959;28;20038;-70
2024/01/13 01:30:13;;;;;;;1.13;0.95;;;9.00;82.80;;;;;;5033265;28;20084;-70
2024/01/13 01:32:39;;;;;;;1.08;0.98;;;9.00;82.90;;;;;;5035687;28;20653;-69
2024/01/13 01:35:08;;;;;;;0.95;0.95;;;9.00;82.90;;;;;;5033615;28;20037;-69
2024/01/13 01:37:34;;;;;;;1.25;1.13;;;9.00;82.80;;;;;;5033464;28;20535;-69
2024/01/13 01:40:00;;;;;;;1.00;0.90;;;9.00;82.80;;;;;;5033313;28;20115;-69
2024/01/13 01:42:26;;;;;;;2.00;1.40;;;9.00;82.80;;;;;;5033009;28;20489;-70
2024/01/13 01:44:51;;;;;;;1.10;0.98;;;9.00;82.90;;;;;;5016562;28;20037;-70
2024/01/13 01:47:19;;;;;;;0.90;0.90;;;9.00;82.90;;;;;;5036560;28;20120;-70
2024/01/13 01:49:46;;;;;;;0.80;0.80;;;9.00;82.80;;;;;;5032492;28;20077;-70
2024/01/13 01:52:13;;;;;;;1.45;1.27;;;9.00;82.90;;;;;;5043241;28;20035;-70
2024/01/13 01:54:39;;;;;;;1.05;0.93;;;9.00;82.90;;;;;;5034644;28;20071;-70
2024/01/13 01:57:06;;;;;;;1.10;1.00;;;9.00;82.90;;;;;;5019391;28;20034;-70
2024/01/13 01:59:32;;;;;;;0.82;0.82;;;9.00;82.90;;;;;;5040382;28;20087;-69
2024/01/13 02:01:59;;;;;;;0.90;0.90;;;9.00;83.70;;;;;;5032029;28;20066;-70
2024/01/13 02:04:25;;;;;;;0.90;0.90;;;9.00;82.90;;;;;;5075443;28;20489;-69
2024/01/13 02:06:52;;;;;;;1.10;0.90;;;9.10;83.00;;;;;;5020754;28;20043;-69
2024/01/13 02:09:18;;;;;;;1.40;1.00;;;9.00;83.00;;;;;;5039431;28;20080;-70
2024/01/13 02:11:45;;;;;;;1.13;1.10;;;9.00;82.90;;;;;;5038524;28;20140;-69
2024/01/13 02:14:11;;;;;;;1.20;1.20;;;9.00;83.00;;;;;;5029572;28;20041;-69
2024/01/13 02:16:36;;;;;;;0.88;0.88;;;9.00;83.00;;;;;;5036996;28;20044;-69
2024/01/13 02:19:02;;;;;;;1.10;1.00;;;9.00;83.00;;;;;;5038528;28;20517;-69
2024/01/13 02:21:28;;;;;;;1.00;1.00;;;9.00;83.00;;;;;;5036004;28;20056;-69
2024/01/13 02:23:54;;;;;;;1.13;1.08;;;9.10;83.80;;;;;;5024067;28;20140;-69
2024/01/13 02:26:20;;;;;;;1.20;1.10;;;9.10;83.10;;;;;;5035672;28;20404;-69
2024/01/13 02:28:45;;;;;;;1.02;0.98;;;9.10;83.10;;;;;;5015733;28;20041;-69
2024/01/13 02:31:12;;;;;;;1.13;1.02;;;9.10;83.10;;;;;;5031928;28;20041;-69
2024/01/13 02:33:37;;;;;;;0.80;0.80;;;9.10;83.10;;;;;;5034895;28;20120;-69
2024/01/13 02:36:03;;;;;;;0.95;0.95;;;9.00;83.00;;;;;;5031868;28;20137;-69
2024/01/13 02:38:29;;;;;;;1.20;1.10;;;9.00;83.10;;;;;;5031142;28;20128;-69
2024/01/13 02:40:55;;;;;;;1.58;1.00;;;9.00;83.10;;;;;;5015575;28;20116;-69
2024/01/13 02:43:20;;;;;;;1.10;1.00;;;9.00;83.10;;;;;;5036370;28;20040;-69
2024/01/13 02:45:46;;;;;;;2.50;1.13;;;9.10;83.10;;;;;;5031893;28;20038;-69
2024/01/13 02:48:17;;;;;;;1.85;1.60;;;9.00;83.10;;;;;;5016946;28;20042;-69
2024/01/13 02:50:53;;;;;;;1.40;1.23;;;9.10;83.20;;;;;;5032321;28;20512;-69
2024/01/13 02:53:18;;;;;;;1.20;1.10;;;9.10;83.20;;;;;;5055216;28;20374;-69
2024/01/13 02:55:44;;;;;;;1.00;0.90;;;9.10;83.20;;;;;;5065190;28;20040;-70
2024/01/13 02:58:10;;;;;;;1.38;1.00;;;9.10;83.10;;;;;;5033596;28;20068;-70
2024/01/13 03:00:35;;;;;;;1.35;1.25;;;9.10;83.10;;;;;;5035380;28;20037;-69
2024/01/13 03:03:01;;;;;;;0.93;0.93;;;9.10;83.20;;;;;;5031930;28;20095;-70
2024/01/13 03:05:26;;;;;;;1.30;1.00;;;9.10;83.20;;;;;;5035483;28;20449;-69
2024/01/13 03:07:52;;;;;;;1.00;1.00;;;9.00;83.10;;;;;;5034275;28;20067;-69
2024/01/13 03:10:18;;;;;;;1.30;1.20;;;9.10;83.20;;;;;;5069468;28;20499;-69
2024/01/13 03:12:44;;;;;;;1.10;1.10;;;9.10;83.20;;;;;;5031138;28;20088;-70
2024/01/13 03:15:10;;;;;;;1.10;1.10;;;9.00;83.10;;;;;;5014843;28;20560;-69
2024/01/13 03:17:36;;;;;;;1.40;1.30;;;9.10;83.20;;;;;;5035074;28;20052;-69
2024/01/13 03:20:02;;;;;;;1.42;1.20;;;9.10;83.20;;;;;;5034244;28;20126;-69
2024/01/13 03:22:28;;;;;;;1.60;1.30;;;9.00;83.10;;;;;;5030956;28;20065;-69
2024/01/13 03:24:55;;;;;;;1.00;1.00;;;9.10;83.20;;;;;;5014507;28;20037;-70
2024/01/13 03:27:21;;;;;;;2.08;1.30;;;9.00;83.10;;;;;;5015607;28;20083;-69
2024/01/13 03:29:46;;;;;;;2.72;1.38;;;9.10;83.30;;;;;;5016461;28;20069;-70
2024/01/13 03:32:12;;;;;;;1.20;1.20;;;9.00;83.20;;;;;;5014760;28;20168;-70
2024/01/13 03:34:38;;;;;;;2.05;1.20;;;9.10;83.30;;;;;;5031117;28;20496;-70
2024/01/13 03:37:04;;;;;;;1.25;1.15;;;9.00;83.20;;;;;;5023424;28;20425;-70
2024/01/13 03:39:29;;;;;;;1.63;1.17;;;9.10;83.20;;;;;;5030471;28;20043;-70
2024/01/13 03:41:55;;;;;;;1.33;1.23;;;9.00;83.10;;;;;;5036947;28;20033;-69
2024/01/13 03:44:21;;;;;;;1.20;1.10;;;9.10;83.20;;;;;;5034114;28;20473;-70
2024/01/13 03:46:46;;;;;;;1.13;0.90;;;9.10;83.30;;;;;;5031919;28;20044;-69
2024/01/13 03:49:12;;;;;;;2.25;1.05;;;9.10;83.30;;;;;;5013781;28;20037;-69
2024/01/13 03:51:38;;;;;;;1.35;1.30;;;9.10;83.30;;;;;;5041328;28;20051;-70
2024/01/13 03:54:03;;;;;;;1.15;1.10;;;9.00;83.30;;;;;;5014922;28;20126;-69
2024/01/13 03:56:30;;;;;;;1.00;1.00;;;9.10;83.30;;;;;;5034165;28;20052;-69
2024/01/13 03:58:55;;;;;;;1.15;1.05;;;9.10;83.30;;;;;;5035177;28;20045;-69
2024/01/13 04:01:21;;;;;;;1.52;1.30;;;9.10;83.30;;;;;;5030332;28;20053;-69
2024/01/13 04:03:47;;;;;;;0.90;0.90;;;9.10;83.30;;;;;;5030411;28;20045;-69
2024/01/13 04:06:12;;;;;;;1.13;1.13;;;9.10;83.40;;;;;;5013895;28;20049;-69
2024/01/13 04:08:38;;;;;;;1.30;1.20;;;9.00;83.30;;;;;;5031368;28;20401;-69
2024/01/13 04:11:08;;;;;;;0.98;0.98;;;9.10;83.30;;;;;;5030350;28;20045;-69
2024/01/13 04:13:35;;;;;;;2.28;1.35;;;9.10;83.40;;;;;;5014447;28;20374;-69
2024/01/13 04:16:00;;;;;;;1.02;1.02;;;9.10;83.30;;;;;;5014669;28;20723;-69
2024/01/13 04:18:26;;;;;;;1.75;1.00;;;9.10;83.30;;;;;;5032766;28;20045;-70
2024/01/13 04:20:52;;;;;;;1.23;1.13;;;9.10;83.30;;;;;;5029917;28;20087;-69
2024/01/13 04:23:18;;;;;;;1.00;1.00;;;9.10;83.30;;;;;;5013018;28;20029;-69
2024/01/13 04:25:43;;;;;;;3.85;1.20;;;9.10;83.30;;;;;;5030083;28;20041;-69
2024/01/13 04:28:09;;;;;;;1.20;1.13;;;9.10;83.30;;;;;;5013151;28;20039;-69
2024/01/13 04:30:35;;;;;;;1.42;1.10;;;9.10;83.40;;;;;;5036119;28;20044;-69
2024/01/13 04:33:01;;;;;;;1.30;1.20;;;9.10;83.40;;;;;;5031441;28;20457;-70
2024/01/13 04:35:27;;;;;;;1.63;1.10;;;9.10;83.30;;;;;;5012613;28;20049;-69
2024/01/13 04:37:53;;;;;;;1.60;1.15;;;9.10;83.30;;;;;;5029570;28;20084;-69
2024/01/13 04:40:19;;;;;;;1.27;1.20;;;9.10;83.40;;;;;;5030816;28;20045;-69
2024/01/13 04:42:45;;;;;;;1.60;1.33;;;9.10;83.40;;;;;;5033362;28;20574;-69
2024/01/13 04:45:10;;;;;;;0.90;0.90;;;9.10;83.30;;;;;;5038683;28;20480;-69
2024/01/13 04:47:36;;;;;;;1.45;1.17;;;9.10;83.30;;;;;;5019603;28;20037;-69
2024/01/13 04:50:02;;;;;;;3.17;1.10;;;9.10;83.40;;;;;;5029674;28;20168;-69
2024/01/13 04:52:28;;;;;;;1.65;1.50;;;9.10;83.30;;;;;;5032431;28;20064;-69
2024/01/13 04:54:54;;;;;;;1.38;1.05;;;9.10;83.40;;;;;;5071907;28;20563;-69
2024/01/13 04:57:20;;;;;;;1.52;1.20;;;9.10;83.30;;;;;;5033022;28;20037;-69
2024/01/13 04:59:46;;;;;;;1.27;1.10;;;9.10;83.40;;;;;;5028648;28;20261;-69
2024/01/13 05:02:11;;;;;;;1.10;1.05;;;9.10;83.30;;;;;;5075223;28;20045;-70
2024/01/13 05:04:39;;;;;;;1.45;1.30;;;9.10;83.30;;;;;;5037715;28;20103;-69
2024/01/13 05:07:05;;;;;;;2.30;1.50;;;9.10;83.40;;;;;;5034851;28;20152;-70
2024/01/13 05:09:30;;;;;;;0.80;0.80;;;9.10;83.30;;;;;;5033845;28;20120;-69
2024/01/13 05:11:56;;;;;;;1.88;1.20;;;9.10;83.30;;;;;;5034466;28;20509;-69
2024/01/13 05:14:22;;;;;;;1.90;1.30;;;9.10;83.40;;;;;;5018595;28;20099;-69
2024/01/13 05:16:47;;;;;;;1.20;1.13;;;9.10;83.30;;;;;;5041088;28;20124;-69
2024/01/13 05:19:13;;;;;;;1.98;1.00;;;9.10;83.30;;;;;;5037652;28;20481;-69
2024/01/13 05:21:39;;;;;;;2.35;1.30;;;9.10;83.30;;;;;;5022480;28;20068;-69
2024/01/13 05:24:04;;;;;;;1.60;1.42;;;9.10;83.40;;;;;;5037737;28;20033;-69
2024/01/13 05:26:30;;;;;;;2.03;1.30;;;9.10;83.30;;;;;;5017983;28;20084;-69
2024/01/13 05:28:56;;;;;;;3.45;1.20;;;9.10;83.40;;;;;;5033435;28;20124;-69
2024/01/13 05:31:22;;;;;;;1.10;1.10;;;9.10;83.40;;;;;;5037922;28;20087;-69
2024/01/13 05:33:47;;;;;;;1.10;1.10;;;9.10;84.10;;;;;;5034748;28;20507;-69
2024/01/13 05:36:13;;;;;;;1.20;1.10;;;9.10;83.40;;;;;;5033138;28;20045;-69
2024/01/13 05:38:39;;;;;;;1.27;1.15;;;9.10;83.40;;;;;;5045643;28;20072;-69
2024/01/13 05:41:04;;;;;;;0.93;0.93;;;9.10;84.00;;;;;;5033895;28;20088;-69
2024/01/13 05:43:30;;;;;;;1.30;1.10;;;9.10;83.30;;;;;;5039883;28;20059;-69
2024/01/13 05:45:56;;;;;;;1.15;1.10;;;9.10;83.40;;;;;;5022645;28;20037;-69
2024/01/13 05:48:21;;;;;;;1.30;1.20;;;9.10;83.30;;;;;;5038405;28;20073;-69
2024/01/13 05:50:47;;;;;;;0.93;0.93;;;9.10;83.40;;;;;;5038647;28;20045;-69
2024/01/13 05:53:12;;;;;;;1.55;0.88;;;9.10;83.40;;;;;;5022581;28;20078;-69
2024/01/13 05:55:38;;;;;;;1.65;0.70;;;9.10;83.40;;;;;;5020269;28;20045;-69
2024/01/13 05:58:04;;;;;;;1.85;0.95;;;9.10;83.30;;;;;;5041142;28;20048;-69
2024/01/13 06:00:29;;;;;;;1.30;1.13;;;9.10;83.40;;;;;;5035803;28;20103;-69
2024/01/13 06:02:57;;;;;;;0.90;0.90;;;9.10;83.40;;;;;;5035944;28;20060;-69
2024/01/13 06:05:23;;;;;;;1.15;1.10;;;9.10;83.40;;;;;;5016876;28;20052;-69
2024/01/13 06:07:49;;;;;;;1.20;1.10;;;9.10;83.40;;;;;;5034271;28;20033;-69
2024/01/13 06:10:15;;;;;;;1.13;1.00;;;9.10;83.40;;;;;;5020702;28;20044;-69
2024/01/13 06:12:40;;;;;;;0.98;0.90;;;9.10;83.40;;;;;;5014177;28;20037;-69
2024/01/13 06:15:07;;;;;;;1.40;1.00;;;9.10;83.40;;;;;;5043216;28;20118;-69
2024/01/13 06:17:33;;;;;;;1.55;1.00;;;9.10;83.40;;;;;;5033990;28;20037;-69
2024/01/13 06:19:58;;;;;;;1.23;1.02;;;9.10;83.30;;;;;;5021832;28;20511;-69
2024/01/13 06:22:24;;;;;;;1.25;1.15;;;9.10;83.30;;;;;;5032124;28;20492;-69
2024/01/13 06:24:50;;;;;;;1.17;1.08;;;9.10;83.30;;;;;;5019617;28;20039;-69
2024/01/13 06:27:15;;;;;;;0.70;0.70;;;9.10;84.00;;;;;;5033006;28;20116;-69
2024/01/13 06:29:41;;;;;;;1.20;0.85;;;9.10;83.30;;;;;;5035693;28;20064;-69
2024/01/13 06:32:06;;;;;;;3.33;0.85;;;9.10;83.20;;;;;;5032986;28;20555;-69
2024/01/13 06:34:32;;;;;;;2.38;0.80;;;9.10;83.30;;;;;;5015276;28;20075;-69
2024/01/13 06:36:58;;;;;;;1.15;0.90;;;9.10;83.30;;;;;;5034249;28;20064;-69
2024/01/13 06:39:23;;;;;;;1.08;0.80;;;9.10;83.30;;;;;;5035605;28;20033;-69
2024/01/13 06:41:49;;;;;;;1.23;0.90;;;9.10;83.30;;;;;;5031273;28;20046;-69
2024/01/13 06:44:15;;;;;;;1.38;0.80;;;9.10;83.30;;;;;;5036380;28;20397;-69
2024/01/13 06:46:40;;;;;;;0.93;0.93;;;9.10;83.30;;;;;;5032096;28;20034;-69
2024/01/13 06:49:06;;;;;;;0.80;0.80;;;9.10;83.30;;;;;;5038277;28;20120;-67
2024/01/13 06:51:32;;;;;;;9.52;1.35;;;9.10;83.40;;;;;;5032874;28;20095;-71
2024/01/13 06:53:58;;;;;;;2.85;1.40;;;9.10;83.80;;;;;;5031069;28;20465;-71
2024/01/13 06:56:23;;;;;;;2.10;1.20;;;9.00;83.70;;;;;;5015022;28;20069;-70
2024/01/13 06:58:49;;;;;;;3.00;1.25;;;9.00;83.80;;;;;;5023833;28;20103;-70
2024/01/13 07:01:15;;;;;;;3.25;1.30;;;9.10;83.90;;;;;;5014770;28;20073;-71
2024/01/13 07:03:41;;;;;;;1.67;1.02;;;9.00;83.90;;;;;;5030580;28;20041;-70
2024/01/13 07:06:07;;;;;;;2.20;1.48;;;9.00;83.80;;;;;;5031314;28;20160;-70
2024/01/13 07:08:33;;;;;;;0.80;0.80;;;9.10;83.80;;;;;;5035354;28;20057;-70
2024/01/13 07:10:59;;;;;;;1.58;1.15;;;9.10;83.80;;;;;;5031347;28;20413;-70
2024/01/13 07:13:25;;;;;;;1.70;1.60;;;9.10;83.80;;;;;;5030971;28;20053;-70
2024/01/13 07:15:51;;;;;;;2.50;1.10;;;9.10;83.80;;;;;;5031249;28;20045;-70
2024/01/13 07:18:16;;;;;;;1.13;1.00;;;9.10;83.70;;;;;;5015535;28;20077;-70
2024/01/13 07:20:42;;;;;;;1.33;1.15;;;9.10;83.70;;;;;;5035308;28;20052;-70
2024/01/13 07:23:08;;;;;;;1.45;1.35;;;9.10;83.80;;;;;;5030530;28;20045;-70
2024/01/13 07:25:33;;;;;;;1.17;1.10;;;9.10;83.70;;;;;;5030720;28;20038;-70
2024/01/13 07:27:59;;;;;;;1.20;1.10;;;9.10;83.70;;;;;;5014581;28;20048;-70
2024/01/13 07:30:25;;;;;;;2.40;1.05;;;9.10;83.70;;;;;;5033232;28;20060;-70
2024/01/13 07:32:51;;;;;;;1.27;1.17;;;9.10;83.70;;;;;;5038595;28;20048;-70
2024/01/13 07:35:17;;;;;;;1.00;1.00;;;9.10;83.70;;;;;;5036320;28;20395;-70
2024/01/13 07:37:43;;;;;;;1.15;1.05;;;9.10;83.70;;;;;;5036190;28;20045;-71
2024/01/13 07:40:09;;;;;;;1.38;1.10;;;9.10;83.70;;;;;;5030697;28;20493;-70
2024/01/13 07:42:39;;;;;;;1.65;1.10;;;9.10;83.70;;;;;;5030501;28;20047;-70
2024/01/13 07:45:05;;;;;;;1.30;1.20;;;9.10;83.70;;;;;;5030224;28;20038;-70
2024/01/13 07:47:30;;;;;;;1.27;1.02;;;9.10;83.70;;;;;;5024561;28;20083;-70
2024/01/13 07:49:56;;;;;;;0.98;0.80;;;9.10;83.70;;;;;;5031678;28;20056;-71
2024/01/13 07:52:22;;;;;;;0.93;0.93;;;9.20;83.80;;;;;;5048249;28;20036;-70
2024/01/13 07:54:47;;;;;;;1.02;0.95;;;9.20;83.80;;;;;;5031400;28;20049;-70
2024/01/13 07:57:14;;;;;;;1.00;0.88;;;9.10;83.70;;;;;;5029749;28;20048;-70
2024/01/13 07:59:39;;;;;;;2.53;1.00;;;9.10;83.70;;;;;;5013119;28;20044;-70
2024/01/13 08:02:06;;;;;;;0.70;0.70;;;9.10;84.00;;;;;;5016953;28;20099;-70
2024/01/13 08:04:32;;;;;;;1.45;0.80;;;9.10;84.00;;;;;;5032738;28;20037;-70
2024/01/13 08:06:58;;;;;;;1.10;1.00;;;9.10;84.10;;;;;;5030443;28;20037;-70
2024/01/13 08:09:23;;;;;;;0.60;0.60;;;9.10;84.20;;;;;;5029920;28;20525;-70
2024/01/13 08:11:49;;;;;;;0.70;0.70;;;9.10;84.20;;;;;;5030496;28;20133;-70
2024/01/13 08:14:16;;;;;;;0.80;0.80;;;9.10;84.20;;;;;;5030582;28;20471;-70
2024/01/13 08:16:42;;;;;;;0.75;0.75;;;9.10;84.20;;;;;;5030603;28;20187;-70
2024/01/13 08:19:09;;;;;;;0.93;0.90;;;9.10;84.20;;;;;;5013322;28;20098;-70
2024/01/13 08:21:36;;;;;;;0.60;0.60;;;9.10;84.20;;;;;;5030042;28;20556;-70
2024/01/13 08:24:01;;;;;;;0.70;0.70;;;9.10;84.10;;;;;;5013599;28;20099;-70
2024/01/13 08:26:30;;;;;;;0.57;0.57;;;9.10;84.10;;;;;;5033917;28;20041;-70
2024/01/13 08:28:56;;;;;;;1.00;0.68;;;9.20;84.20;;;;;;5035856;28;20107;-70
2024/01/13 08:31:21;;;;;;;0.60;0.60;;;9.20;84.10;;;;;;5013125;28;20037;-70
2024/01/13 08:33:47;;;;;;;1.20;0.60;;;9.20;84.30;;;;;;5029984;28;20045;-70
2024/01/13 08:36:13;;;;;;;1.55;0.80;;;9.10;84.30;;;;;;5029316;28;20485;-70
2024/01/13 08:38:38;;;;;;;1.55;0.90;;;9.10;84.30;;;;;;5036014;28;20520;-70
2024/01/13 08:41:04;;;;;;;0.50;0.50;;;9.10;84.40;;;;;;5029220;28;20046;-70
2024/01/13 08:43:29;;;;;;;1.38;0.80;;;9.10;84.40;;;;;;5029956;28;20090;-70
2024/01/13 08:45:56;;;;;;;1.17;0.80;;;9.20;84.40;;;;;;5029581;28;20044;-70
2024/01/13 08:48:22;;;;;;;1.00;0.90;;;9.20;84.50;;;;;;5030299;28;20045;-70
2024/01/13 08:50:48;;;;;;;0.70;0.70;;;9.20;84.40;;;;;;5029239;28;20459;-70
2024/01/13 08:53:13;;;;;;;0.70;0.70;;;9.20;84.30;;;;;;5029029;28;20064;-70
2024/01/13 08:55:39;;;;;;;1.10;1.10;;;9.20;84.40;;;;;;5013616;28;20125;-70
2024/01/13 08:58:04;;;;;;;1.38;1.27;;;9.20;84.50;;;;;;5013072;28;20489;-70
2024/01/13 09:00:32;;;;;;;2.38;1.25;;;9.20;84.50;;;;;;5038041;28;20041;-70
2024/01/13 09:02:58;;;;;;;1.10;1.10;;;9.10;84.50;;;;;;5012484;28;20387;-70
2024/01/13 09:05:24;;;;;;;2.05;1.48;;;9.20;84.60;;;;;;5037289;28;20098;-70
2024/01/13 09:07:49;;;;;;;2.35;1.67;;;9.20;84.60;;;;;;5035646;28;20041;-70
2024/01/13 09:10:15;;;;;;;2.03;1.60;;;9.20;84.60;;;;;;5019031;28;20080;-70
2024/01/13 09:12:41;;;;;;;1.70;1.60;;;9.20;84.60;;;;;;5022171;28;20116;-70
2024/01/13 09:15:09;;;;;;;1.90;1.80;;;9.20;84.50;;;;;;5036807;28;20037;-70
2024/01/13 09:17:36;;;;;;;2.40;1.85;;;9.20;84.50;;;;;;5037981;28;20377;-70
2024/01/13 09:20:02;;;;;;;3.38;2.85;;;9.20;84.40;;;;;;5033186;28;20059;-70
2024/01/13 09:22:27;;;;;;;2.75;2.50;;;9.20;84.40;;;;;;5030342;28;20505;-70
2024/01/13 09:24:53;;;;;;;2.75;2.33;;;9.20;84.40;;;;;;5030615;28;20037;-70
2024/01/13 09:27:18;;;;;;;3.75;3.35;;;9.20;84.40;;;;;;5030378;28;20102;-70
2024/01/13 09:29:47;;;;;;;3.40;3.08;;;9.20;84.40;;;;;;5030139;28;20216;-70
2024/01/13 09:32:13;;;;;;;4.47;3.45;;;9.20;84.30;;;;;;5066868;28;20043;-71
2024/01/13 09:34:38;;;;;;;5.13;4.70;;;9.20;84.30;;;;;;5039168;28;20034;-70
2024/01/13 09:37:05;;;;;;;4.47;4.05;;;9.20;84.30;;;;;;5039071;28;20040;-71
2024/01/13 09:39:30;;;;;;;5.60;4.72;;;9.20;84.30;;;;;;5019834;28;20037;-70
2024/01/13 09:41:58;;;;;;;6.97;5.68;;;9.20;84.30;;;;;;5072027;28;20095;-70
2024/01/13 09:44:32;;;;;;;5.40;4.85;;;9.20;84.30;;;;;;5036064;28;20048;-70
2024/01/13 09:46:59;;;;;;;4.95;4.45;;;9.20;84.20;;;;;;5019820;28;20077;-70
2024/01/13 09:49:30;;;;;;;7.37;4.77;;;9.20;84.20;;;;;;5044350;28;20037;-70
2024/01/13 09:51:57;;;;;;;7.13;5.55;;;9.20;84.20;;;;;;5023775;28;20067;-70
2024/01/13 09:54:24;;;;;;;8.45;6.95;;;9.20;84.20;;;;;;5041536;28;20056;-70
2024/01/13 09:56:51;;;;;;;6.53;5.65;;;9.20;84.20;;;;;;5041532;28;20424;-70
2024/01/13 09:59:18;;;;;;;8.90;7.30;;;9.20;84.10;;;;;;5037926;28;20103;-71
2024/01/13 10:01:44;;;;;;;9.32;7.70;;;9.20;84.20;;;;;;5035233;28;20057;-70
2024/01/13 10:04:10;;;;;;;7.80;6.72;;;9.20;84.10;;;;;;5070299;28;20037;-70
2024/01/13 10:06:36;;;;;;;10.70;8.90;;;9.30;84.20;;;;;;5036125;28;20033;-70
2024/01/13 10:09:03;;;;;;;9.88;8.88;;;9.30;84.10;;;;;;5038927;28;20060;-70
2024/01/13 10:11:29;;;;;;;9.90;8.98;;;9.30;84.20;;;;;;5036350;28;20056;-70
2024/01/13 10:14:02;;;;;;;14.27;11.10;;;9.20;84.10;;;;;;5022804;28;20041;-70
2024/01/13 10:16:29;;;;;;;11.43;10.05;;;9.30;84.20;;;;;;5074522;28;20258;-70
2024/01/13 10:18:57;;;;;;;11.18;9.15;;;9.20;84.10;;;;;;5027791;28;20123;-71
2024/01/13 10:21:23;;;;;;;16.25;13.48;;;9.30;84.10;;;;;;5020627;28;20473;-70
2024/01/13 10:23:50;;;;;;;17.40;12.35;;;9.20;84.10;;;;;;5019461;28;20033;-70
2024/01/13 10:26:16;;;;;;;14.07;11.73;;;9.20;84.20;;;;;;5041039;28;20103;-70
2024/01/13 10:28:43;;;;;;;14.98;11.23;;;9.20;84.20;;;;;;5039691;28;20065;-70
2024/01/13 10:31:09;;;;;;;13.93;11.15;;;9.20;84.20;;;;;;5040148;28;20041;-70
2024/01/13 10:33:35;;;;;;;16.52;12.95;;;9.20;84.20;;;;;;5021255;28;20052;-70
2024/01/13 10:36:01;;;;;;;17.95;13.35;;;9.20;84.30;;;;;;5038649;28;20048;-70
2024/01/13 10:38:26;;;;;;;14.07;11.32;;;9.20;84.30;;;;;;5039460;28;20040;-70
2024/01/13 10:40:53;;;;;;;17.90;15.13;;;9.20;84.20;;;;;;5037696;28;20038;-70
2024/01/13 10:43:22;;;;;;;16.58;14.77;;;9.20;84.20;;;;;;5036703;28;20037;-70
2024/01/13 10:45:52;;;;;;;16.65;12.88;;;9.30;84.20;;;;;;5018655;28;20041;-70
2024/01/13 10:48:34;;;;;;;17.73;12.82;;;9.30;84.20;;;;;;5037982;28;20493;-70
2024/01/13 10:51:01;;;;;;;14.18;12.68;;;9.30;84.20;;;;;;5041303;28;20048;-70
2024/01/13 10:53:29;;;;;;;18.55;13.73;;;9.30;84.20;;;;;;5041226;28;20042;-70
2024/01/13 10:55:56;;;;;;;15.55;14.00;;;9.30;84.20;;;;;;5070011;28;20037;-70
2024/01/13 10:58:23;;;;;;;14.97;12.37;;;9.30;84.10;;;;;;5014696;28;20041;-70
2024/01/13 11:00:50;;;;;;;15.10;13.50;;;9.30;84.10;;;;;;5039420;28;20040;-70
2024/01/13 11:03:18;;;;;;;15.95;13.98;;;9.30;84.10;;;;;;5039477;28;20067;-70
2024/01/13 11:05:44;;;;;;;18.55;14.15;;;9.30;84.10;;;;;;5039259;28;20099;-70
2024/01/13 11:08:10;;;;;;;15.52;13.27;;;9.30;84.10;;;;;;5020889;28;20041;-70
2024/01/13 11:10:44;;;;;;;17.05;12.40;;;9.30;84.10;;;;;;5038047;28;20041;-70
2024/01/13 11:13:22;;;;;;;15.18;12.00;;;9.30;84.00;;;;;;5034591;28;20063;-70
2024/01/13 11:15:56;;;;;;;16.07;12.50;;;9.30;84.10;;;;;;5037086;28;20056;-70
2024/01/13 11:18:22;;;;;;;17.52;12.50;;;9.30;84.10;;;;;;5030935;28;20283;-70
2024/01/13 11:21:07;;;;;;;16.80;13.05;;;9.30;84.00;;;;;;5032276;28;20033;-70
2024/01/13 11:23:37;;;;;;;15.68;13.05;;;9.30;84.10;;;;;;5024902;28;20033;-70
2024/01/13 11:26:04;;;;;;;15.00;12.48;;;9.30;84.00;;;;;;5044139;28;20064;-70
2024/01/13 11:28:48;;;;;;;17.45;15.50;;;9.30;84.10;;;;;;5036889;28;20044;-70
2024/01/13 11:31:38;;;;;;;18.52;15.07;;;9.30;84.10;;;;;;5048405;28;20037;-70
2024/01/13 11:34:08;;;;;;;17.77;14.55;;;9.30;84.10;;;;;;5030807;28;20120;-70
2024/01/13 11:36:35;;;;;;;16.90;13.55;;;9.30;84.00;;;;;;5078284;28;20037;-70
2024/01/13 11:39:03;;;;;;;17.20;12.73;;;9.30;84.10;;;;;;5033950;28;20053;-70
2024/01/13 11:41:48;;;;;;;15.35;11.93;;;9.30;84.10;;;;;;5026797;28;20131;-70
2024/01/13 11:44:43;;;;;;;14.90;11.73;;;9.30;84.10;;;;;;5033388;28;20116;-70
2024/01/13 11:47:11;;;;;;;14.35;12.40;;;9.30;84.10;;;;;;5028512;28;20045;-70
2024/01/13 11:49:44;;;;;;;15.82;14.23;;;9.30;84.10;;;;;;5030433;28;20041;-70
2024/01/13 11:52:14;;;;;;;18.80;12.85;;;9.30;84.10;;;;;;5030750;28;20124;-70
2024/01/13 11:54:41;;;;;;;15.55;12.00;;;9.30;84.10;;;;;;5030307;28;20048;-70
2024/01/13 11:57:11;;;;;;;16.87;13.33;;;9.40;84.20;;;;;;5045300;28;20042;-70
2024/01/13 11:59:38;;;;;;;14.52;13.05;;;9.30;84.10;;;;;;5029560;28;20060;-70
2024/01/13 12:02:04;;;;;;;13.93;12.00;;;9.30;84.80;;;;;;5029453;28;20046;-70
2024/01/13 12:04:32;;;;;;;17.35;15.23;;;9.40;84.20;;;;;;5014097;28;20060;-70
2024/01/13 12:06:59;;;;;;;15.85;12.02;;;9.30;84.20;;;;;;5041398;28;20223;-70
2024/01/13 12:09:26;;;;;;;16.10;13.93;;;9.30;84.10;;;;;;5030252;28;20493;-70
2024/01/13 12:11:56;;;;;;;15.60;11.93;;;9.40;84.20;;;;;;5030326;28;20037;-70
2024/01/13 12:14:29;;;;;;;15.18;13.18;;;9.40;84.20;;;;;;5013260;28;20298;-70
2024/01/13 12:16:56;;;;;;;16.63;11.90;;;9.40;84.20;;;;;;5035500;28;20041;-70
2024/01/13 12:19:25;;;;;;;16.00;13.10;;;9.40;85.00;;;;;;5030088;28;20099;-70
2024/01/13 12:21:51;;;;;;;15.93;14.23;;;9.30;84.20;;;;;;5030085;28;20041;-70
2024/01/13 12:24:24;;;;;;;13.32;10.95;;;9.40;84.20;;;;;;5013701;28;20033;-69
2024/01/13 12:26:49;;;;;;;22.08;18.98;;;9.40;84.20;;;;;;5029895;28;20052;-69
2024/01/13 12:29:16;;;;;;;24.52;19.27;;;9.30;84.70;;;;;;5046566;28;20041;-70
2024/01/13 12:31:42;;;;;;;21.00;15.82;;;9.30;85.00;;;;;;5030103;28;20412;-70
2024/01/13 12:34:09;;;;;;;22.48;18.52;;;9.30;85.00;;;;;;5029997;28;20507;-70
2024/01/13 12:36:36;;;;;;;21.65;17.98;;;9.30;85.20;;;;;;5030022;28;20052;-70
2024/01/13 12:39:02;;;;;;;20.77;14.73;;;9.30;85.20;;;;;;5037513;28;20073;-70
2024/01/13 12:41:28;;;;;;;22.08;18.20;;;9.30;85.10;;;;;;5013141;28;20095;-70
2024/01/13 12:43:54;;;;;;;19.27;14.77;;;9.30;85.20;;;;;;5029909;28;20041;-70
2024/01/13 12:46:20;;;;;;;19.60;15.98;;;9.30;85.10;;;;;;5029499;28;20038;-70
2024/01/13 12:48:45;;;;;;;18.98;16.98;;;9.30;85.10;;;;;;5016390;28;20413;-70